Time;durP1;ratioP1;P1;durP2;ratioP2;P2;SDS_P1;SDS_P2;PMS_P1;PMS_P2;Temp;Humidity;BMP_temperature;BMP_pressure;BME280_temperature;BME280_humidity;BME280_pressure;Samples;Min_cycle;Max_cycle;Signal;HPM_P1;HPM_P2
2021/04/09 00:01:29;;;;;;;10.05;4.20;;;;;;;;;;5011176;28;20049;-51
2021/04/09 00:03:57;;;;;;;5.55;3.83;;;;;;;;;;5010109;28;20107;-49
2021/04/09 00:06:23;;;;;;;8.68;3.75;;;;;;;;;;5007346;28;20414;-50
2021/04/09 00:08:50;;;;;;;9.45;3.90;;;;;;;;;;4993986;28;20389;-49
2021/04/09 00:11:16;;;;;;;6.93;3.83;;;;;;;;;;5011561;28;20034;-52
2021/04/09 00:13:42;;;;;;;6.65;4.05;;;;;;;;;;5014281;28;20030;-51
2021/04/09 00:16:08;;;;;;;8.20;3.85;;;;;;;;;;5014662;28;20037;-47
2021/04/09 00:18:34;;;;;;;13.00;3.55;;;;;;;;;;5015129;28;20481;-51
2021/04/09 00:21:00;;;;;;;7.85;3.85;;;;;;;;;;5015068;28;20129;-49
2021/04/09 00:23:26;;;;;;;10.15;4.00;;;;;;;;;;5014741;28;20022;-47
2021/04/09 00:25:52;;;;;;;12.05;4.60;;;;;;;;;;5003313;28;20054;-47
2021/04/09 00:28:18;;;;;;;8.73;4.47;;;;;;;;;;5014752;28;20735;-48
2021/04/09 00:30:44;;;;;;;7.63;3.70;;;;;;;;;;5014853;28;20097;-50
2021/04/09 00:33:10;;;;;;;10.05;4.47;;;;;;;;;;5015050;28;20034;-49
2021/04/09 00:35:36;;;;;;;8.90;4.00;;;;;;;;;;5014533;28;20196;-48
2021/04/09 00:38:03;;;;;;;7.07;3.95;;;;;;;;;;5014510;28;20117;-47
2021/04/09 00:40:29;;;;;;;7.38;3.90;;;;;;;;;;5015044;28;20022;-47
2021/04/09 00:42:55;;;;;;;7.50;4.07;;;;;;;;;;5015109;28;20068;-50
2021/04/09 00:45:21;;;;;;;6.72;3.67;;;;;;;;;;5014451;28;20110;-48
2021/04/09 00:47:47;;;;;;;8.65;3.97;;;;;;;;;;5014318;28;20037;-48
2021/04/09 00:50:15;;;;;;;10.73;4.38;;;;;;;;;;5014240;28;20120;-50
2021/04/09 00:52:42;;;;;;;8.48;4.28;;;;;;;;;;5014776;28;20109;-49
2021/04/09 00:55:08;;;;;;;9.23;4.72;;;;;;;;;;5013893;28;20029;-50
2021/04/09 00:57:35;;;;;;;9.65;4.72;;;;;;;;;;5014536;28;20152;-48
2021/04/09 01:00:03;;;;;;;11.90;5.07;;;;;;;;;;5014119;28;20446;-47
2021/04/09 01:02:29;;;;;;;10.73;5.70;;;;;;;;;;5015131;28;20097;-48
2021/04/09 01:04:56;;;;;;;11.25;5.63;;;;;;;;;;5009643;28;20097;-48
2021/04/09 01:07:24;;;;;;;11.07;5.65;;;;;;;;;;5014134;28;20103;-50
2021/04/09 01:09:50;;;;;;;11.30;5.53;;;;;;;;;;5014134;28;20164;-47
2021/04/09 01:12:16;;;;;;;11.77;5.68;;;;;;;;;;5014168;28;20065;-47
2021/04/09 01:14:42;;;;;;;9.45;5.60;;;;;;;;;;5014337;28;20459;-51
2021/04/09 01:17:14;;;;;;;10.98;6.20;;;;;;;;;;5012619;28;20113;-49
2021/04/09 01:20:02;;;;;;;12.13;5.88;;;;;;;;;;5001502;28;20501;-51
2021/04/09 01:22:32;;;;;;;10.30;6.03;;;;;;;;;;5013683;28;20108;-52
2021/04/09 01:25:13;;;;;;;10.23;5.93;;;;;;;;;;5003391;28;20395;-48
2021/04/09 01:27:51;;;;;;;11.93;6.00;;;;;;;;;;5013537;28;20425;-51
2021/04/09 01:30:36;;;;;;;11.35;5.70;;;;;;;;;;5013862;28;20022;-51
2021/04/09 01:33:02;;;;;;;10.02;5.60;;;;;;;;;;5013498;28;20108;-52
2021/04/09 01:35:29;;;;;;;14.00;6.13;;;;;;;;;;5013377;28;20171;-48
2021/04/09 01:38:00;;;;;;;12.38;5.78;;;;;;;;;;5012860;28;20037;-48
2021/04/09 01:40:34;;;;;;;12.18;5.18;;;;;;;;;;5013338;28;20028;-47
2021/04/09 01:43:02;;;;;;;13.02;5.53;;;;;;;;;;5012554;28;20113;-47
2021/04/09 01:45:28;;;;;;;10.90;5.18;;;;;;;;;;5012527;28;20068;-49
2021/04/09 01:47:55;;;;;;;13.05;5.40;;;;;;;;;;5013859;28;20118;-48
2021/04/09 01:50:22;;;;;;;9.52;5.43;;;;;;;;;;5013512;28;20038;-49
2021/04/09 01:52:50;;;;;;;13.20;5.07;;;;;;;;;;5013190;28;20034;-49
2021/04/09 01:55:17;;;;;;;9.77;5.05;;;;;;;;;;5012185;28;20510;-47
2021/04/09 01:57:44;;;;;;;11.05;5.00;;;;;;;;;;5013245;28;20036;-48
2021/04/09 02:00:13;;;;;;;11.32;5.50;;;;;;;;;;5013605;28;20050;-48
2021/04/09 02:02:42;;;;;;;10.13;4.95;;;;;;;;;;5013460;28;20518;-47
2021/04/09 02:05:08;;;;;;;10.40;4.95;;;;;;;;;;5012360;28;20034;-47
2021/04/09 02:07:34;;;;;;;8.60;5.00;;;;;;;;;;5013099;28;20045;-48
2021/04/09 02:10:02;;;;;;;14.02;4.85;;;;;;;;;;5013187;28;20071;-47
2021/04/09 02:12:28;;;;;;;10.85;4.88;;;;;;;;;;5013318;28;20413;-53
2021/04/09 02:14:56;;;;;;;9.55;4.55;;;;;;;;;;5013500;28;20115;-46
2021/04/09 02:17:23;;;;;;;11.07;4.57;;;;;;;;;;5012917;28;20528;-48
2021/04/09 02:19:49;;;;;;;12.35;5.50;;;;;;;;;;5013000;28;20092;-50
2021/04/09 02:22:15;;;;;;;9.52;4.95;;;;;;;;;;5013058;28;20057;-48
2021/04/09 02:24:41;;;;;;;9.88;4.65;;;;;;;;;;5007725;28;20460;-47
2021/04/09 02:27:07;;;;;;;10.73;5.60;;;;;;;;;;5007494;28;20112;-47
2021/04/09 02:29:34;;;;;;;12.40;4.80;;;;;;;;;;5012896;28;20053;-47
2021/04/09 02:32:00;;;;;;;11.95;4.72;;;;;;;;;;5012247;28;20407;-48
2021/04/09 02:34:27;;;;;;;9.52;5.18;;;;;;;;;;5012600;28;20037;-47
2021/04/09 02:36:53;;;;;;;9.82;4.85;;;;;;;;;;5010768;28;20472;-47
2021/04/09 02:39:26;;;;;;;10.88;5.40;;;;;;;;;;5012798;28;20046;-47
2021/04/09 02:41:55;;;;;;;10.15;5.20;;;;;;;;;;5012762;28;20042;-47
2021/04/09 02:44:21;;;;;;;12.32;5.10;;;;;;;;;;5012563;28;20030;-48
2021/04/09 02:46:59;;;;;;;11.80;4.68;;;;;;;;;;5012426;28;20030;-47
2021/04/09 02:49:29;;;;;;;10.73;4.78;;;;;;;;;;5012687;28;20053;-46
2021/04/09 02:51:56;;;;;;;10.82;4.97;;;;;;;;;;5012328;28;20108;-53
2021/04/09 02:54:23;;;;;;;10.68;4.65;;;;;;;;;;5012070;28;20146;-51
2021/04/09 02:56:51;;;;;;;9.10;4.85;;;;;;;;;;5011766;28;20022;-49
2021/04/09 02:59:17;;;;;;;8.15;4.82;;;;;;;;;;5012786;28;20022;-49
2021/04/09 03:01:44;;;;;;;10.45;5.32;;;;;;;;;;5012323;28;20058;-48
2021/04/09 03:04:11;;;;;;;10.63;5.18;;;;;;;;;;5012184;28;20025;-48
2021/04/09 03:06:37;;;;;;;9.60;4.75;;;;;;;;;;5011695;28;20049;-53
2021/04/09 03:09:06;;;;;;;7.53;4.85;;;;;;;;;;5011892;28;20038;-47
2021/04/09 03:11:33;;;;;;;10.00;4.78;;;;;;;;;;4999593;28;20113;-47
2021/04/09 03:14:00;;;;;;;11.90;4.82;;;;;;;;;;5012075;28;20101;-47
2021/04/09 03:16:26;;;;;;;8.40;5.20;;;;;;;;;;5011720;28;20363;-47
2021/04/09 03:18:52;;;;;;;15.95;5.15;;;;;;;;;;5012271;28;20026;-48
2021/04/09 03:21:19;;;;;;;10.85;4.85;;;;;;;;;;5011877;28;20494;-47
2021/04/09 03:23:45;;;;;;;10.43;4.70;;;;;;;;;;5011568;28;20101;-49
2021/04/09 03:26:11;;;;;;;11.65;5.28;;;;;;;;;;5009762;28;20151;-47
2021/04/09 03:28:37;;;;;;;10.95;5.03;;;;;;;;;;5012301;28;20028;-46
2021/04/09 03:31:03;;;;;;;12.13;4.72;;;;;;;;;;5011630;28;20111;-49
2021/04/09 03:33:29;;;;;;;7.60;4.82;;;;;;;;;;5011852;28;20597;-48
2021/04/09 03:35:55;;;;;;;12.65;5.32;;;;;;;;;;5011330;28;20076;-53
2021/04/09 03:38:21;;;;;;;13.80;4.65;;;;;;;;;;5012126;28;20038;-49
2021/04/09 03:40:47;;;;;;;7.85;5.05;;;;;;;;;;5011786;28;20029;-49
2021/04/09 03:43:14;;;;;;;8.23;4.78;;;;;;;;;;5011644;28;20034;-47
2021/04/09 03:45:40;;;;;;;10.20;5.13;;;;;;;;;;5005397;28;20030;-47
2021/04/09 03:48:07;;;;;;;11.75;5.10;;;;;;;;;;5014360;28;20521;-48
2021/04/09 03:50:33;;;;;;;14.82;5.30;;;;;;;;;;5015738;28;20068;-48
2021/04/09 03:52:59;;;;;;;10.18;5.57;;;;;;;;;;5015815;28;20057;-49
2021/04/09 03:55:25;;;;;;;10.13;5.03;;;;;;;;;;5014736;28;20042;-48
2021/04/09 03:57:51;;;;;;;9.93;5.28;;;;;;;;;;5015195;28;20117;-47
2021/04/09 04:00:18;;;;;;;9.30;5.15;;;;;;;;;;5015408;28;20026;-49
2021/04/09 04:02:44;;;;;;;10.68;5.75;;;;;;;;;;5004620;28;20018;-53
2021/04/09 04:05:10;;;;;;;12.10;5.20;;;;;;;;;;4987709;28;20348;-49
2021/04/09 04:07:36;;;;;;;9.77;5.05;;;;;;;;;;5015355;28;20177;-50
2021/04/09 04:10:04;;;;;;;14.70;5.68;;;;;;;;;;5015226;28;20077;-47
2021/04/09 04:12:30;;;;;;;10.05;5.13;;;;;;;;;;5015384;28;20034;-49
2021/04/09 04:14:56;;;;;;;12.40;5.25;;;;;;;;;;5015277;28;20040;-47
2021/04/09 04:17:22;;;;;;;10.90;5.53;;;;;;;;;;5014876;28;20038;-48
2021/04/09 04:19:48;;;;;;;11.18;5.15;;;;;;;;;;5015242;28;20119;-47
2021/04/09 04:22:14;;;;;;;9.77;5.30;;;;;;;;;;5015144;28;20049;-47
2021/04/09 04:24:40;;;;;;;15.57;5.43;;;;;;;;;;5012984;28;20061;-47
2021/04/09 04:27:06;;;;;;;8.02;4.97;;;;;;;;;;5014938;28;20026;-47
2021/04/09 04:29:32;;;;;;;11.65;5.60;;;;;;;;;;5015236;28;20080;-48
2021/04/09 04:31:58;;;;;;;11.50;5.75;;;;;;;;;;5014874;28;20541;-52
2021/04/09 04:34:24;;;;;;;12.50;6.00;;;;;;;;;;5014715;28;20038;-49
2021/04/09 04:36:50;;;;;;;11.75;5.30;;;;;;;;;;5014459;28;20030;-50
2021/04/09 04:39:16;;;;;;;13.00;5.78;;;;;;;;;;5014671;28;20045;-51
2021/04/09 04:41:46;;;;;;;12.10;5.03;;;;;;;;;;5014675;28;20030;-51
2021/04/09 04:44:12;;;;;;;11.63;5.93;;;;;;;;;;5014872;28;20025;-52
2021/04/09 04:46:39;;;;;;;13.50;5.45;;;;;;;;;;5014433;28;20033;-50
2021/04/09 04:49:05;;;;;;;11.93;5.45;;;;;;;;;;5014731;28;20045;-47
2021/04/09 04:51:30;;;;;;;12.52;5.88;;;;;;;;;;5014431;28;20030;-47
2021/04/09 04:53:56;;;;;;;13.32;5.90;;;;;;;;;;5014401;28;20462;-47
2021/04/09 04:56:22;;;;;;;13.55;5.93;;;;;;;;;;5014056;28;20117;-47
2021/04/09 04:58:48;;;;;;;9.98;6.03;;;;;;;;;;5013445;28;20025;-48
2021/04/09 05:01:14;;;;;;;13.60;5.38;;;;;;;;;;5014110;28;20630;-47
2021/04/09 05:03:42;;;;;;;10.63;6.43;;;;;;;;;;5014399;28;20034;-48
2021/04/09 05:06:08;;;;;;;13.35;5.55;;;;;;;;;;5010238;28;20128;-48
2021/04/09 05:08:33;;;;;;;13.60;6.20;;;;;;;;;;5014336;28;20450;-52
2021/04/09 05:10:59;;;;;;;14.55;6.53;;;;;;;;;;5013935;28;20045;-48
2021/04/09 05:13:25;;;;;;;11.77;6.10;;;;;;;;;;5014303;28;20494;-48
2021/04/09 05:15:52;;;;;;;12.80;6.82;;;;;;;;;;5013509;28;20062;-47
2021/04/09 05:18:18;;;;;;;11.07;6.07;;;;;;;;;;5014112;28;20048;-47
2021/04/09 05:20:44;;;;;;;13.43;6.45;;;;;;;;;;5014235;28;20034;-47
2021/04/09 05:23:10;;;;;;;10.90;5.75;;;;;;;;;;5014143;28;20026;-47
2021/04/09 05:25:36;;;;;;;10.95;6.55;;;;;;;;;;5003331;28;20430;-48
2021/04/09 05:28:02;;;;;;;12.00;5.95;;;;;;;;;;5013785;28;20109;-47
2021/04/09 05:30:28;;;;;;;13.65;6.43;;;;;;;;;;5013734;28;20029;-47
2021/04/09 05:32:54;;;;;;;12.77;5.97;;;;;;;;;;5013499;28;20034;-47
2021/04/09 05:35:22;;;;;;;13.73;7.10;;;;;;;;;;5013514;28;20034;-47
2021/04/09 05:37:48;;;;;;;10.95;6.60;;;;;;;;;;5013472;28;20034;-47
2021/04/09 05:40:14;;;;;;;15.93;7.63;;;;;;;;;;5013293;28;20034;-47
2021/04/09 05:42:40;;;;;;;13.15;6.68;;;;;;;;;;5013788;28;20553;-50
2021/04/09 05:45:07;;;;;;;12.45;5.75;;;;;;;;;;5010243;28;20682;-50
2021/04/09 05:47:33;;;;;;;10.57;5.72;;;;;;;;;;5011511;28;20394;-48
2021/04/09 05:49:59;;;;;;;14.70;6.50;;;;;;;;;;5013459;28;20049;-48
2021/04/09 05:52:25;;;;;;;13.95;6.25;;;;;;;;;;5013406;28;20037;-48
2021/04/09 05:54:51;;;;;;;13.90;6.43;;;;;;;;;;4995113;28;20168;-47
2021/04/09 05:57:17;;;;;;;11.10;6.38;;;;;;;;;;5013110;28;20113;-47
2021/04/09 05:59:43;;;;;;;15.38;6.65;;;;;;;;;;5012838;28;21131;-49
2021/04/09 06:02:09;;;;;;;16.08;6.25;;;;;;;;;;5013236;28;20029;-49
2021/04/09 06:04:35;;;;;;;15.18;6.53;;;;;;;;;;5012704;28;20109;-47
2021/04/09 06:07:01;;;;;;;12.00;6.72;;;;;;;;;;5013081;28;20049;-51
2021/04/09 06:09:27;;;;;;;14.48;7.15;;;;;;;;;;5012568;28;20109;-47
2021/04/09 06:11:53;;;;;;;11.75;6.70;;;;;;;;;;5012683;28;20037;-48
2021/04/09 06:14:19;;;;;;;15.23;6.45;;;;;;;;;;5013034;28;20091;-48
2021/04/09 06:16:45;;;;;;;12.20;5.72;;;;;;;;;;5012602;28;20077;-52
2021/04/09 06:19:11;;;;;;;12.07;6.88;;;;;;;;;;5012457;28;20021;-49
2021/04/09 06:21:37;;;;;;;12.35;6.15;;;;;;;;;;5012854;28;20588;-48
2021/04/09 06:24:04;;;;;;;14.95;6.97;;;;;;;;;;5012868;28;20033;-48
2021/04/09 06:26:30;;;;;;;15.85;7.20;;;;;;;;;;5011366;28;20073;-50
2021/04/09 06:28:56;;;;;;;13.27;7.00;;;;;;;;;;5012095;28;20113;-48
2021/04/09 06:31:22;;;;;;;13.07;6.57;;;;;;;;;;5011782;28;20049;-47
2021/04/09 06:33:48;;;;;;;17.30;6.25;;;;;;;;;;5011699;28;20033;-49
2021/04/09 06:36:14;;;;;;;11.68;6.57;;;;;;;;;;4993981;28;20382;-48
2021/04/09 06:38:40;;;;;;;11.93;6.50;;;;;;;;;;5012044;28;20030;-48
2021/04/09 06:41:06;;;;;;;12.27;6.43;;;;;;;;;;5011490;28;20447;-47
2021/04/09 06:43:32;;;;;;;14.60;6.68;;;;;;;;;;5012430;28;20034;-47
2021/04/09 06:45:58;;;;;;;11.18;6.30;;;;;;;;;;5012056;28;20088;-49
2021/04/09 06:48:24;;;;;;;14.18;6.65;;;;;;;;;;5012184;28;20482;-47
2021/04/09 06:50:50;;;;;;;15.73;6.78;;;;;;;;;;5012372;28;20073;-52
2021/04/09 06:53:17;;;;;;;13.77;6.75;;;;;;;;;;5011289;28;20026;-48
2021/04/09 06:55:43;;;;;;;12.20;6.70;;;;;;;;;;5010464;28;20045;-49
2021/04/09 06:58:13;;;;;;;11.13;6.53;;;;;;;;;;5009889;28;20343;-47
2021/04/09 07:00:39;;;;;;;17.45;7.00;;;;;;;;;;5009931;28;20051;-52
2021/04/09 07:03:07;;;;;;;9.93;5.70;;;;;;;;;;5010353;28;20101;-47
2021/04/09 07:05:34;;;;;;;12.60;6.05;;;;;;;;;;5011353;28;20137;-48
2021/04/09 07:08:00;;;;;;;12.60;6.32;;;;;;;;;;5010733;28;20060;-47
2021/04/09 07:10:26;;;;;;;18.27;6.68;;;;;;;;;;5009178;28;20036;-49
2021/04/09 07:13:12;;;;;;;15.40;6.13;;;;;;;;;;5011914;28;20054;-48
2021/04/09 07:15:42;;;;;;;13.55;6.38;;;;;;;;;;5008959;28;20030;-48
2021/04/09 07:18:09;;;;;;;11.63;6.03;;;;;;;;;;5011442;28;20088;-47
2021/04/09 07:20:36;;;;;;;15.10;5.95;;;;;;;;;;5011825;28;20107;-48
2021/04/09 07:23:03;;;;;;;16.60;6.60;;;;;;;;;;5015696;28;20022;-48
2021/04/09 07:25:30;;;;;;;10.55;6.40;;;;;;;;;;5017880;28;20057;-48
2021/04/09 07:28:08;;;;;;;12.02;6.25;;;;;;;;;;5014476;28;20111;-48
2021/04/09 07:30:34;;;;;;;11.43;5.72;;;;;;;;;;5015619;28;20037;-47
2021/04/09 07:33:04;;;;;;;15.43;6.25;;;;;;;;;;5016775;28;20072;-48
2021/04/09 07:35:30;;;;;;;11.23;6.03;;;;;;;;;;5017740;28;20413;-48
2021/04/09 07:37:57;;;;;;;15.57;6.22;;;;;;;;;;5017228;28;20041;-48
2021/04/09 07:40:31;;;;;;;12.20;5.80;;;;;;;;;;5018046;28;20025;-50
2021/04/09 07:42:57;;;;;;;13.98;5.78;;;;;;;;;;5017488;28;20518;-48
2021/04/09 07:45:24;;;;;;;12.40;5.82;;;;;;;;;;5016496;28;20014;-51
2021/04/09 07:47:57;;;;;;;11.35;5.90;;;;;;;;;;5015041;28;20030;-50
2021/04/09 07:50:34;;;;;;;14.00;6.28;;;;;;;;;;5017886;28;20413;-48
2021/04/09 07:53:00;;;;;;;16.98;5.97;;;;;;;;;;5015134;28;20069;-48
2021/04/09 07:55:29;;;;;;;8.15;5.13;;;;;;;;;;5015909;28;20122;-48
2021/04/09 07:57:55;;;;;;;13.25;5.32;;;;;;;;;;5016870;28;20121;-47
2021/04/09 08:00:27;;;;;;;11.10;5.63;;;;;;;;;;5017388;28;20367;-49
2021/04/09 08:02:55;;;;;;;15.30;5.57;;;;;;;;;;5017567;28;20466;-48
2021/04/09 08:05:22;;;;;;;9.40;4.80;;;;;;;;;;5016819;28;20032;-48
2021/04/09 08:07:48;;;;;;;12.27;5.05;;;;;;;;;;5017554;28;20117;-48
2021/04/09 08:10:16;;;;;;;9.50;5.45;;;;;;;;;;5017377;28;20132;-48
2021/04/09 08:12:45;;;;;;;10.65;5.35;;;;;;;;;;5017132;28;20022;-49
2021/04/09 08:15:12;;;;;;;11.95;5.28;;;;;;;;;;5016119;28;20121;-48
2021/04/09 08:17:38;;;;;;;11.48;5.10;;;;;;;;;;5017001;28;20042;-50
2021/04/09 08:20:11;;;;;;;11.80;4.95;;;;;;;;;;5017147;28;20081;-49
2021/04/09 08:22:37;;;;;;;18.88;5.43;;;;;;;;;;5011476;28;20068;-48
2021/04/09 08:25:05;;;;;;;7.93;4.55;;;;;;;;;;5012886;28;20101;-52
2021/04/09 08:27:31;;;;;;;14.88;5.53;;;;;;;;;;5016016;28;20127;-48
2021/04/09 08:29:57;;;;;;;12.82;5.18;;;;;;;;;;5016093;28;20124;-48
2021/04/09 08:32:23;;;;;;;10.65;5.18;;;;;;;;;;4999136;28;20042;-49
2021/04/09 08:34:49;;;;;;;10.90;5.07;;;;;;;;;;5011497;28;20027;-47
2021/04/09 08:37:16;;;;;;;15.88;5.35;;;;;;;;;;5001734;28;20153;-47
2021/04/09 08:39:42;;;;;;;10.05;4.72;;;;;;;;;;5012512;28;20096;-48
2021/04/09 08:42:08;;;;;;;8.65;4.82;;;;;;;;;;5012880;28;20498;-47
2021/04/09 08:44:35;;;;;;;7.65;4.22;;;;;;;;;;5012955;28;20029;-47
2021/04/09 08:47:01;;;;;;;9.73;4.18;;;;;;;;;;5012240;28;20022;-49
2021/04/09 08:49:27;;;;;;;9.43;4.97;;;;;;;;;;5011913;28;20120;-51
2021/04/09 08:51:53;;;;;;;9.27;4.25;;;;;;;;;;5013740;28;20037;-49
2021/04/09 08:54:20;;;;;;;9.18;4.30;;;;;;;;;;5013081;28;20109;-48
2021/04/09 08:56:47;;;;;;;8.52;4.40;;;;;;;;;;5007546;28;20422;-52
2021/04/09 08:59:13;;;;;;;13.77;4.97;;;;;;;;;;5003335;28;20429;-49
2021/04/09 09:01:39;;;;;;;10.75;4.60;;;;;;;;;;5012985;28;20030;-49
2021/04/09 09:04:23;;;;;;;9.88;4.68;;;;;;;;;;5010044;28;20534;-47
2021/04/09 09:06:50;;;;;;;9.88;5.10;;;;;;;;;;5006486;28;20117;-47
2021/04/09 09:09:36;;;;;;;18.88;4.68;;;;;;;;;;5005586;28;20044;-52
2021/04/09 09:12:03;;;;;;;12.30;4.63;;;;;;;;;;5007597;28;20113;-48
2021/04/09 09:14:35;;;;;;;11.27;4.50;;;;;;;;;;5002230;28;20061;-47
2021/04/09 09:17:22;;;;;;;14.00;5.13;;;;;;;;;;5009192;28;20029;-48
2021/04/09 09:19:49;;;;;;;10.45;4.60;;;;;;;;;;5012380;28;20030;-49
2021/04/09 09:22:16;;;;;;;10.07;5.07;;;;;;;;;;5012301;28;20117;-49
2021/04/09 09:25:01;;;;;;;9.55;4.05;;;;;;;;;;5006194;28;20117;-50
2021/04/09 09:27:47;;;;;;;10.15;4.97;;;;;;;;;;5006996;28;20030;-51
2021/04/09 09:30:40;;;;;;;9.95;5.05;;;;;;;;;;5005596;28;20065;-52
2021/04/09 09:33:18;;;;;;;8.98;4.53;;;;;;;;;;4999871;28;20085;-49
2021/04/09 09:36:00;;;;;;;15.60;5.65;;;;;;;;;;5010399;28;20025;-50
2021/04/09 09:38:45;;;;;;;10.70;4.22;;;;;;;;;;5011673;28;20112;-49
2021/04/09 09:41:11;;;;;;;12.98;4.80;;;;;;;;;;5001575;28;20092;-51
2021/04/09 09:43:37;;;;;;;9.18;5.47;;;;;;;;;;5013279;28;20022;-49
2021/04/09 09:46:04;;;;;;;10.00;5.03;;;;;;;;;;5011457;28;20040;-49
2021/04/09 09:48:30;;;;;;;7.50;4.65;;;;;;;;;;5007862;28;20129;-49
2021/04/09 09:50:56;;;;;;;13.98;5.18;;;;;;;;;;5010827;28;20435;-49
2021/04/09 09:53:22;;;;;;;10.50;5.22;;;;;;;;;;5012894;28;20038;-50
2021/04/09 09:55:49;;;;;;;15.93;5.47;;;;;;;;;;5006540;28;20030;-49
2021/04/09 09:58:19;;;;;;;11.50;5.22;;;;;;;;;;5010814;28;20068;-48
2021/04/09 10:00:51;;;;;;;9.77;4.50;;;;;;;;;;5009762;28;20041;-49
2021/04/09 10:03:23;;;;;;;9.50;4.68;;;;;;;;;;5012503;28;20098;-50
2021/04/09 10:05:54;;;;;;;8.47;4.93;;;;;;;;;;5012718;28;20079;-52
2021/04/09 10:08:20;;;;;;;9.75;4.88;;;;;;;;;;5012299;28;20026;-49
2021/04/09 10:10:48;;;;;;;11.57;5.13;;;;;;;;;;5010335;28;20057;-50
2021/04/09 10:13:25;;;;;;;8.93;4.50;;;;;;;;;;5012425;28;20092;-55
2021/04/09 10:15:52;;;;;;;6.88;4.07;;;;;;;;;;4997096;28;20029;-55
2021/04/09 10:18:18;;;;;;;10.38;5.10;;;;;;;;;;5009755;28;20037;-49
2021/04/09 10:20:47;;;;;;;10.88;5.28;;;;;;;;;;5012610;28;20026;-49
2021/04/09 10:23:13;;;;;;;11.25;4.55;;;;;;;;;;5011189;28;20037;-53
2021/04/09 10:25:39;;;;;;;12.98;4.82;;;;;;;;;;5011607;28;20486;-52
2021/04/09 10:28:12;;;;;;;11.70;4.88;;;;;;;;;;5010862;28;20049;-50
2021/04/09 10:30:38;;;;;;;11.73;5.05;;;;;;;;;;5012003;28;20510;-50
2021/04/09 10:33:05;;;;;;;8.52;4.45;;;;;;;;;;5011763;28;20037;-50
2021/04/09 10:35:32;;;;;;;8.98;4.35;;;;;;;;;;5007600;28;20030;-49
2021/04/09 10:38:17;;;;;;;9.95;4.18;;;;;;;;;;5010406;28;20026;-51
2021/04/09 10:40:53;;;;;;;6.78;4.28;;;;;;;;;;5010933;28;20065;-49
2021/04/09 10:43:29;;;;;;;8.25;4.28;;;;;;;;;;5009663;28;20509;-49
2021/04/09 10:46:11;;;;;;;7.72;3.88;;;;;;;;;;4998399;28;20084;-48
2021/04/09 10:48:39;;;;;;;8.73;3.80;;;;;;;;;;5008585;28;20030;-49
2021/04/09 10:51:05;;;;;;;7.75;3.67;;;;;;;;;;5009629;28;20042;-51
2021/04/09 10:53:31;;;;;;;7.45;4.25;;;;;;;;;;5010168;28;20394;-50
2021/04/09 10:56:00;;;;;;;8.95;3.33;;;;;;;;;;5011861;28;20029;-50
2021/04/09 10:58:26;;;;;;;8.02;3.78;;;;;;;;;;5010658;28;20084;-49
2021/04/09 11:00:53;;;;;;;9.15;3.67;;;;;;;;;;5010639;28;20025;-50
2021/04/09 11:03:19;;;;;;;6.80;3.72;;;;;;;;;;5010078;28;20030;-49
2021/04/09 11:05:45;;;;;;;7.82;3.70;;;;;;;;;;5011193;28;20390;-53
2021/04/09 11:08:11;;;;;;;6.80;4.18;;;;;;;;;;5011252;28;20040;-55
2021/04/09 11:10:38;;;;;;;6.63;4.20;;;;;;;;;;5011687;28;20462;-54
2021/04/09 11:13:04;;;;;;;8.27;3.38;;;;;;;;;;5011639;28;20594;-52
2021/04/09 11:15:40;;;;;;;8.27;3.75;;;;;;;;;;5010246;28;20421;-48
2021/04/09 11:18:06;;;;;;;10.57;3.05;;;;;;;;;;5011419;28;20033;-52
2021/04/09 11:20:34;;;;;;;6.07;3.50;;;;;;;;;;5010751;28;20092;-48
2021/04/09 11:22:59;;;;;;;10.05;3.85;;;;;;;;;;5011142;28;20030;-48
2021/04/09 11:25:35;;;;;;;10.88;4.32;;;;;;;;;;4992792;28;20092;-49
2021/04/09 11:28:01;;;;;;;11.93;3.30;;;;;;;;;;5011895;28;20053;-50
2021/04/09 11:30:32;;;;;;;6.65;3.80;;;;;;;;;;5010714;28;20026;-49
2021/04/09 11:32:58;;;;;;;5.78;3.35;;;;;;;;;;5011511;28;20034;-49
2021/04/09 11:35:25;;;;;;;8.32;3.40;;;;;;;;;;5009122;28;20096;-48
2021/04/09 11:37:55;;;;;;;6.80;4.18;;;;;;;;;;5009932;28;20517;-49
2021/04/09 11:40:33;;;;;;;8.57;3.47;;;;;;;;;;5011216;28;20025;-51
2021/04/09 11:42:59;;;;;;;8.07;4.30;;;;;;;;;;5011816;28;20057;-49
2021/04/09 11:45:36;;;;;;;8.85;3.22;;;;;;;;;;5009749;28;20033;-49
2021/04/09 11:48:02;;;;;;;7.28;4.13;;;;;;;;;;5008812;28;20061;-49
2021/04/09 11:50:28;;;;;;;7.47;3.45;;;;;;;;;;5008889;28;20117;-50
2021/04/09 11:53:05;;;;;;;9.02;3.40;;;;;;;;;;5010287;28;20108;-49
2021/04/09 11:55:31;;;;;;;6.20;3.83;;;;;;;;;;5007953;28;20065;-53
2021/04/09 11:57:57;;;;;;;7.25;3.25;;;;;;;;;;5008952;28;20033;-53
2021/04/09 12:00:31;;;;;;;9.70;3.95;;;;;;;;;;5001658;28;20705;-49
2021/04/09 12:02:59;;;;;;;9.35;4.07;;;;;;;;;;5011091;28;20132;-49
2021/04/09 12:05:27;;;;;;;10.02;3.55;;;;;;;;;;5002105;28;20030;-53
2021/04/09 12:07:53;;;;;;;7.18;3.60;;;;;;;;;;5008915;28;20041;-49
2021/04/09 12:10:21;;;;;;;6.75;2.80;;;;;;;;;;5014940;28;20119;-51
2021/04/09 12:12:47;;;;;;;6.43;3.00;;;;;;;;;;5014706;28;20032;-49
2021/04/09 12:15:14;;;;;;;6.10;3.55;;;;;;;;;;5014701;28;20022;-51
2021/04/09 12:17:40;;;;;;;5.90;3.33;;;;;;;;;;5014459;28;20421;-50
2021/04/09 12:20:08;;;;;;;11.02;3.28;;;;;;;;;;5014795;28;20033;-47
2021/04/09 12:22:34;;;;;;;7.05;3.80;;;;;;;;;;5014467;28;20065;-47
2021/04/09 12:25:00;;;;;;;12.52;3.92;;;;;;;;;;5010795;28;20108;-47
2021/04/09 12:27:26;;;;;;;8.48;3.15;;;;;;;;;;5014807;28;20026;-48
2021/04/09 12:29:52;;;;;;;6.50;3.10;;;;;;;;;;5014599;28;20132;-49
2021/04/09 12:32:18;;;;;;;10.65;4.05;;;;;;;;;;5014733;28;20026;-54
2021/04/09 12:34:44;;;;;;;10.27;3.15;;;;;;;;;;5014488;28;20152;-50
2021/04/09 12:37:10;;;;;;;7.57;3.75;;;;;;;;;;5018425;28;20026;-48
2021/04/09 12:39:36;;;;;;;8.77;3.90;;;;;;;;;;5014568;28;20039;-48
2021/04/09 12:42:04;;;;;;;6.25;3.53;;;;;;;;;;5013981;28;20483;-48
2021/04/09 12:44:31;;;;;;;7.55;3.90;;;;;;;;;;5014170;28;20041;-48
2021/04/09 12:46:57;;;;;;;9.60;3.20;;;;;;;;;;5013303;28;20026;-48
2021/04/09 12:49:23;;;;;;;7.25;3.83;;;;;;;;;;5011381;28;20030;-47
2021/04/09 12:51:50;;;;;;;6.28;3.60;;;;;;;;;;5014547;28;20103;-47
2021/04/09 12:54:16;;;;;;;7.20;3.72;;;;;;;;;;5016705;28;20033;-47
2021/04/09 12:56:42;;;;;;;11.77;4.28;;;;;;;;;;5019920;28;20034;-47
2021/04/09 12:59:08;;;;;;;7.85;4.13;;;;;;;;;;5014091;28;20034;-48
2021/04/09 13:01:34;;;;;;;8.43;3.92;;;;;;;;;;5014605;28;20367;-47
2021/04/09 13:04:00;;;;;;;8.32;4.32;;;;;;;;;;5009009;28;20088;-51
2021/04/09 13:06:26;;;;;;;6.38;4.00;;;;;;;;;;5013048;28;20429;-51
2021/04/09 13:08:52;;;;;;;7.78;4.25;;;;;;;;;;5013340;28;20109;-50
2021/04/09 13:11:18;;;;;;;12.10;4.45;;;;;;;;;;5013341;28;20076;-48
2021/04/09 13:13:45;;;;;;;10.82;4.28;;;;;;;;;;5013091;28;20029;-51
2021/04/09 13:16:11;;;;;;;6.53;3.97;;;;;;;;;;5009211;28;20065;-50
2021/04/09 13:18:37;;;;;;;9.25;4.30;;;;;;;;;;5013747;28;20045;-47
2021/04/09 13:21:05;;;;;;;9.93;3.97;;;;;;;;;;5011844;28;20037;-49
2021/04/09 13:23:31;;;;;;;7.40;3.42;;;;;;;;;;5012768;28;20033;-47
2021/04/09 13:25:57;;;;;;;8.73;4.03;;;;;;;;;;5013367;28;20398;-47
2021/04/09 13:28:24;;;;;;;8.38;3.72;;;;;;;;;;5008915;28;20112;-47
2021/04/09 13:30:55;;;;;;;9.75;3.78;;;;;;;;;;5013422;28;20088;-47
2021/04/09 13:33:22;;;;;;;8.32;4.10;;;;;;;;;;5013035;28;20113;-49
2021/04/09 13:35:48;;;;;;;10.00;4.22;;;;;;;;;;5012926;28;20112;-47
2021/04/09 13:38:14;;;;;;;9.45;4.70;;;;;;;;;;5012854;28;20034;-48
2021/04/09 13:40:40;;;;;;;7.78;4.68;;;;;;;;;;5013240;28;20466;-54
2021/04/09 13:43:06;;;;;;;7.43;4.80;;;;;;;;;;5013145;28;20367;-48
2021/04/09 13:45:32;;;;;;;11.57;5.53;;;;;;;;;;5013172;28;20041;-49
2021/04/09 13:47:58;;;;;;;8.48;4.68;;;;;;;;;;4993509;28;20463;-49
2021/04/09 13:50:25;;;;;;;9.43;4.40;;;;;;;;;;4995292;28;20037;-48
2021/04/09 13:52:51;;;;;;;11.60;4.80;;;;;;;;;;5013318;28;20379;-47
2021/04/09 13:55:17;;;;;;;10.05;5.13;;;;;;;;;;5013038;28;20094;-47
2021/04/09 13:57:43;;;;;;;9.30;5.47;;;;;;;;;;5012552;28;20029;-48
2021/04/09 14:00:09;;;;;;;14.05;5.70;;;;;;;;;;5012914;28;20057;-49
2021/04/09 14:02:35;;;;;;;10.82;4.40;;;;;;;;;;5010817;28;20021;-47
2021/04/09 14:05:01;;;;;;;9.25;4.60;;;;;;;;;;5012200;28;20026;-47
2021/04/09 14:07:27;;;;;;;10.30;5.10;;;;;;;;;;5012502;28;20080;-47
2021/04/09 14:09:53;;;;;;;11.65;4.70;;;;;;;;;;5011798;28;20045;-47
2021/04/09 14:12:19;;;;;;;8.90;4.90;;;;;;;;;;5011927;28;20505;-47
2021/04/09 14:14:45;;;;;;;7.40;4.22;;;;;;;;;;5011075;28;20030;-47
2021/04/09 14:17:14;;;;;;;12.45;4.05;;;;;;;;;;5011376;28;20382;-52
2021/04/09 14:19:40;;;;;;;11.27;4.72;;;;;;;;;;5012022;28;20037;-54
2021/04/09 14:22:06;;;;;;;14.05;5.60;;;;;;;;;;5012325;28;20037;-54
2021/04/09 14:24:32;;;;;;;8.73;4.10;;;;;;;;;;5012571;28;20053;-49
2021/04/09 14:26:58;;;;;;;8.32;4.53;;;;;;;;;;5011488;28;20018;-49
2021/04/09 14:29:24;;;;;;;11.75;4.97;;;;;;;;;;5012933;28;20433;-49
2021/04/09 14:31:50;;;;;;;10.73;5.43;;;;;;;;;;5012074;28;20049;-50
2021/04/09 14:34:16;;;;;;;8.73;4.43;;;;;;;;;;5011671;28;20037;-49
2021/04/09 14:36:43;;;;;;;11.40;5.50;;;;;;;;;;5011811;28;20026;-50
2021/04/09 14:39:09;;;;;;;7.15;4.78;;;;;;;;;;5012509;28;20445;-50